createdAt,value
2018-07-24T00:00:02.710Z,152
2018-07-24T00:01:03.923Z,151.5
2018-07-24T00:02:05.304Z,152
2018-07-24T00:03:06.823Z,151.5
2018-07-24T00:04:08.196Z,152.5
2018-07-24T00:05:09.569Z,152
2018-07-24T00:06:10.942Z,151.5
2018-07-24T00:07:12.332Z,152
2018-07-24T00:08:13.707Z,151.5
2018-07-24T00:09:15.236Z,152
2018-07-24T00:10:16.451Z,151.5
2018-07-24T00:11:17.663Z,152
2018-07-24T00:12:19.038Z,152
2018-07-24T00:13:20.586Z,152
2018-07-24T00:14:22.158Z,152.5
2018-07-24T00:15:23.524Z,151.5
2018-07-24T00:16:25.063Z,152.5
2018-07-24T00:17:26.634Z,153
2018-07-24T00:18:28.001Z,152.5
2018-07-24T00:19:29.539Z,152
2018-07-24T00:20:31.073Z,151.5
2018-07-24T00:21:32.447Z,151.5
2018-07-24T00:22:33.833Z,152
2018-07-24T00:23:35.121Z,152
2018-07-24T00:24:36.714Z,152.5
2018-07-24T00:25:38.240Z,152.5
2018-07-24T00:26:39.449Z,152.5
2018-07-24T00:27:40.994Z,153
2018-07-24T00:28:42.393Z,152.5
2018-07-24T00:29:43.593Z,152.5
2018-07-24T00:30:45.131Z,152.5
2018-07-24T00:31:46.496Z,153
2018-07-24T00:32:48.044Z,149.6
2018-07-24T00:33:49.432Z,152.5
2018-07-24T00:34:50.817Z,152
2018-07-24T00:35:52.328Z,152.5
2018-07-24T00:36:53.378Z,152.5
2018-07-24T00:37:54.754Z,152.5
2018-07-24T00:38:56.110Z,152.5
2018-07-24T00:39:57.323Z,152
2018-07-24T00:40:59.095Z,152.5
2018-07-24T00:42:00.640Z,153
2018-07-24T00:43:02.177Z,152
2018-07-24T00:44:03.384Z,151.5
2018-07-24T00:45:04.763Z,152.5
2018-07-24T00:46:06.145Z,152
2018-07-24T00:47:07.344Z,152
2018-07-24T00:48:08.885Z,152
2018-07-24T00:49:10.426Z,152.5
2018-07-24T00:50:11.803Z,152.5
2018-07-24T00:51:13.345Z,153
2018-07-24T00:52:14.886Z,152
2018-07-24T00:53:16.411Z,152
2018-07-24T00:54:18.186Z,152.5
2018-07-24T00:55:19.745Z,152
2018-07-24T00:56:21.273Z,152.5
2018-07-24T00:57:22.819Z,152
2018-07-24T00:58:24.354Z,151.5
2018-07-24T00:59:25.713Z,152.5
2018-07-24T01:00:26.928Z,152
2018-07-24T01:01:28.309Z,152
2018-07-24T01:02:29.517Z,152.5
2018-07-24T01:03:30.735Z,152.5
2018-07-24T01:04:32.103Z,152.5
2018-07-24T01:05:33.655Z,152.5
2018-07-24T01:06:35.184Z,152.5
2018-07-24T01:07:36.384Z,152.5
2018-07-24T01:08:38.271Z,152.5
2018-07-24T01:09:39.784Z,152
2018-07-24T01:10:40.707Z,152
2018-07-24T01:11:41.755Z,152.5
2018-07-24T01:12:43.179Z,152.5
2018-07-24T01:13:44.721Z,152
2018-07-24T01:14:45.921Z,152.5
2018-07-24T01:15:47.438Z,152.5
2018-07-24T01:16:48.817Z,152
2018-07-24T01:17:50.356Z,152.5
2018-07-24T01:18:51.865Z,152
2018-07-24T01:19:53.215Z,151
2018-07-24T01:20:54.759Z,152.5
2018-07-24T01:21:56.133Z,152
2018-07-24T01:22:57.659Z,152
2018-07-24T01:23:59.032Z,152.5
2018-07-24T01:25:00.403Z,152.5
2018-07-24T01:26:01.942Z,152.5
2018-07-24T01:27:03.499Z,152.5
2018-07-24T01:28:04.863Z,152.5
2018-07-24T01:29:06.408Z,153
2018-07-24T01:30:07.944Z,152.5
2018-07-24T01:31:09.315Z,152.5
2018-07-24T01:32:10.529Z,152
2018-07-24T01:33:11.912Z,152.5
2018-07-24T01:34:13.288Z,152.5
2018-07-24T01:35:14.667Z,152.5
2018-07-24T01:36:16.227Z,153
2018-07-24T01:37:17.455Z,152.5
2018-07-24T01:38:19.019Z,152
2018-07-24T01:39:20.386Z,153
2018-07-24T01:40:21.766Z,149.1
2018-07-24T01:41:23.150Z,149.6
2018-07-24T01:42:24.344Z,149.1
2018-07-24T01:43:25.730Z,149.6
2018-07-24T01:44:27.269Z,149.1
2018-07-24T01:45:28.651Z,153
2018-07-24T01:46:30.181Z,153.5
2018-07-24T01:47:31.716Z,153.5
2018-07-24T01:48:33.088Z,153.5
2018-07-24T01:49:34.465Z,153.5
2018-07-24T01:50:35.851Z,153.5
2018-07-24T01:51:37.224Z,153
2018-07-24T01:52:38.755Z,153
2018-07-24T01:53:40.294Z,153.5
2018-07-24T01:54:41.829Z,153.5
2018-07-24T01:55:43.375Z,153.5
2018-07-24T01:56:44.770Z,153.5
2018-07-24T01:57:46.151Z,153
2018-07-24T01:58:47.364Z,153.5
2018-07-24T01:59:48.575Z,153
2018-07-24T02:00:50.124Z,153
2018-07-24T02:01:51.672Z,153
2018-07-24T02:02:53.055Z,153.5
2018-07-24T02:03:54.270Z,153
2018-07-24T02:04:55.814Z,153
2018-07-24T02:05:57.384Z,153.5
2018-07-24T02:06:58.922Z,153.5
2018-07-24T02:08:00.545Z,153.5
2018-07-24T02:09:01.758Z,153.5
2018-07-24T02:10:03.159Z,153.5
2018-07-24T02:11:04.712Z,153.5
2018-07-24T02:12:06.092Z,153.5
2018-07-24T02:13:07.324Z,154
2018-07-24T02:14:08.714Z,154
2018-07-24T02:15:10.245Z,153.5
2018-07-24T02:16:11.629Z,154
2018-07-24T02:17:13.185Z,154
2018-07-24T02:18:14.414Z,154
2018-07-24T02:19:15.974Z,153.5
2018-07-24T02:20:17.369Z,154
2018-07-24T02:21:18.597Z,153.5
2018-07-24T02:22:19.982Z,154
2018-07-24T02:23:21.525Z,153
2018-07-24T02:24:23.086Z,154
2018-07-24T02:25:24.295Z,153.5
2018-07-24T02:26:25.685Z,154
2018-07-24T02:27:26.913Z,154
2018-07-24T02:28:28.305Z,153.5
2018-07-24T02:29:29.701Z,154
2018-07-24T02:30:31.083Z,153
2018-07-24T02:31:32.643Z,154
2018-07-24T02:32:33.536Z,153
2018-07-24T02:33:34.780Z,153.5
2018-07-24T02:34:36.165Z,154
2018-07-24T02:35:37.230Z,153.5
2018-07-24T02:36:38.441Z,153.5
2018-07-24T02:37:39.974Z,153
2018-07-24T02:38:41.371Z,153.5
2018-07-24T02:39:42.942Z,153.5
2018-07-24T02:40:44.150Z,153
2018-07-24T02:41:45.367Z,153
2018-07-24T02:42:46.767Z,152.5
2018-07-24T02:43:47.995Z,153
2018-07-24T02:44:49.536Z,150
2018-07-24T02:45:50.778Z,153.5
2018-07-24T02:46:52.310Z,153
2018-07-24T02:47:53.673Z,153
2018-07-24T02:48:55.217Z,153
2018-07-24T02:49:56.776Z,152.5
2018-07-24T02:50:58.171Z,153
2018-07-24T02:51:59.720Z,153
2018-07-24T02:53:00.946Z,152.5
2018-07-24T02:54:02.166Z,153.5
2018-07-24T02:55:03.577Z,152.5
2018-07-24T02:56:05.161Z,153
2018-07-24T02:57:06.704Z,153
2018-07-24T02:58:08.094Z,153.5
2018-07-24T02:59:09.646Z,152.5
2018-07-24T03:00:11.027Z,153
2018-07-24T03:01:12.440Z,153.5
2018-07-24T03:02:13.885Z,153
2018-07-24T03:03:15.278Z,153.5
2018-07-24T03:04:16.847Z,153
2018-07-24T03:05:18.225Z,153
2018-07-24T03:06:19.619Z,153.5
2018-07-24T03:07:21.175Z,153.5
2018-07-24T03:08:22.545Z,153.5
2018-07-24T03:09:23.592Z,153
2018-07-24T03:10:24.641Z,154
2018-07-24T03:11:26.037Z,152
2018-07-24T03:12:27.572Z,152
2018-07-24T03:13:28.803Z,153.5
2018-07-24T03:14:30.010Z,153.5
2018-07-24T03:15:31.482Z,153
2018-07-24T03:16:33.027Z,153
2018-07-24T03:17:34.604Z,153
2018-07-24T03:18:36.168Z,152
2018-07-24T03:19:37.545Z,151.5
2018-07-24T03:20:39.146Z,152
2018-07-24T03:21:40.557Z,151.5
2018-07-24T03:22:41.964Z,151
2018-07-24T03:23:43.369Z,152
2018-07-24T03:24:44.997Z,151.5
2018-07-24T03:25:46.564Z,152
2018-07-24T03:26:48.006Z,150.5
2018-07-24T03:27:49.564Z,151.5
2018-07-24T03:28:51.129Z,151.5
2018-07-24T03:29:52.492Z,152
2018-07-24T03:30:53.872Z,152
2018-07-24T03:31:55.268Z,152
2018-07-24T03:32:56.801Z,152
2018-07-24T03:33:58.011Z,151.5
2018-07-24T03:34:59.397Z,152
2018-07-24T03:36:00.937Z,151.5
2018-07-24T03:37:02.336Z,151.5
2018-07-24T03:38:03.874Z,152
2018-07-24T03:39:05.261Z,151.5
2018-07-24T03:40:06.803Z,152
2018-07-24T03:41:08.179Z,152
2018-07-24T03:42:09.407Z,151.5
2018-07-24T03:43:10.806Z,152
2018-07-24T03:44:12.185Z,151.5
2018-07-24T03:45:13.565Z,151
2018-07-24T03:46:15.138Z,152
2018-07-24T03:47:16.701Z,152
2018-07-24T03:48:18.093Z,152
2018-07-24T03:49:19.322Z,152
2018-07-24T03:50:20.543Z,151
2018-07-24T03:51:22.085Z,151.5
2018-07-24T03:52:23.475Z,151.5
2018-07-24T03:53:25.050Z,151
2018-07-24T03:54:26.426Z,151
2018-07-24T03:55:27.970Z,151
2018-07-24T03:56:29.352Z,150.5
2018-07-24T03:57:30.399Z,151
2018-07-24T03:58:31.627Z,150
2018-07-24T03:59:33.006Z,150.5
2018-07-24T04:00:34.229Z,150
2018-07-24T04:01:35.449Z,150.5
2018-07-24T04:02:36.845Z,150
2018-07-24T04:03:38.228Z,150
2018-07-24T04:04:39.783Z,150
2018-07-24T04:05:41.166Z,150
2018-07-24T04:06:42.715Z,150.5
2018-07-24T04:07:43.781Z,150
2018-07-24T04:08:45.168Z,150
2018-07-24T04:09:46.535Z,150
2018-07-24T04:10:47.761Z,150
2018-07-24T04:11:48.957Z,150
2018-07-24T04:12:50.507Z,149.6
2018-07-24T04:13:52.059Z,150.5
2018-07-24T04:14:53.437Z,150
2018-07-24T04:15:54.986Z,150
2018-07-24T04:16:56.214Z,150.5
2018-07-24T04:17:57.829Z,150.5
2018-07-24T04:18:59.368Z,150
2018-07-24T04:20:00.580Z,150
2018-07-24T04:21:02.180Z,150
2018-07-24T04:22:03.750Z,150
2018-07-24T04:23:05.126Z,149.6
2018-07-24T04:24:06.504Z,150
2018-07-24T04:25:08.096Z,150
2018-07-24T04:26:09.318Z,149.6
2018-07-24T04:27:10.898Z,149.6
2018-07-24T04:28:12.114Z,150
2018-07-24T04:29:13.498Z,149.6
2018-07-24T04:30:14.888Z,149.6
2018-07-24T04:31:16.431Z,150
2018-07-24T04:32:17.837Z,149.6
2018-07-24T04:33:19.361Z,150
2018-07-24T04:34:20.580Z,149.6
2018-07-24T04:35:22.127Z,149.6
2018-07-24T04:36:23.658Z,150
2018-07-24T04:37:25.046Z,150
2018-07-24T04:38:26.607Z,150
2018-07-24T04:39:27.994Z,150
2018-07-24T04:40:29.384Z,150
2018-07-24T04:41:30.796Z,149.6
2018-07-24T04:42:32.332Z,149.6
2018-07-24T04:43:33.727Z,150
2018-07-24T04:44:35.284Z,150.5
2018-07-24T04:45:36.819Z,149.6
2018-07-24T04:46:38.189Z,149.6
2018-07-24T04:47:39.742Z,149.6
2018-07-24T04:48:41.135Z,149.6
2018-07-24T04:49:42.684Z,149.6
2018-07-24T04:50:44.245Z,150
2018-07-24T04:51:45.623Z,150
2018-07-24T04:52:47.020Z,149.6
2018-07-24T04:53:48.566Z,149.6
2018-07-24T04:54:49.953Z,150
2018-07-24T04:55:51.324Z,150
2018-07-24T04:56:52.762Z,150
2018-07-24T04:57:53.976Z,149.6
2018-07-24T04:58:55.348Z,149.6
2018-07-24T04:59:56.733Z,150
2018-07-24T05:00:57.945Z,149.1
2018-07-24T05:01:59.336Z,149.6
2018-07-24T05:03:00.705Z,149.6
2018-07-24T05:04:02.087Z,149.6
2018-07-24T05:05:03.633Z,149.1
2018-07-24T05:06:05.011Z,149.6
2018-07-24T05:07:06.411Z,149.6
2018-07-24T05:08:07.965Z,149.6
2018-07-24T05:09:09.345Z,149.6
2018-07-24T05:10:10.765Z,150
2018-07-24T05:11:12.480Z,149.6
2018-07-24T05:12:13.549Z,149.6
2018-07-24T05:13:14.766Z,150
2018-07-24T05:14:16.315Z,149.1
2018-07-24T05:15:17.697Z,149.6
2018-07-24T05:16:18.899Z,149.1
2018-07-24T05:17:20.435Z,149.6
2018-07-24T05:18:21.810Z,150
2018-07-24T05:19:23.035Z,149.1
2018-07-24T05:20:24.232Z,149.6
2018-07-24T05:21:25.785Z,149.6
2018-07-24T05:22:27.173Z,149.6
2018-07-24T05:23:28.665Z,149.6
2018-07-24T05:24:30.380Z,149.6
2018-07-24T05:25:31.923Z,150
2018-07-24T05:26:33.466Z,149.6
2018-07-24T05:27:34.868Z,149.1
2018-07-24T05:28:36.432Z,150
2018-07-24T05:29:37.979Z,149.6
2018-07-24T05:30:39.368Z,149.1
2018-07-24T05:31:40.919Z,149.6
2018-07-24T05:32:42.476Z,149.1
2018-07-24T05:33:44.027Z,149.1
2018-07-24T05:34:45.575Z,149.6
2018-07-24T05:35:46.961Z,149.6
2018-07-24T05:36:48.345Z,149.6
2018-07-24T05:37:49.914Z,149.6
2018-07-24T05:38:51.218Z,149.1
2018-07-24T05:39:53.020Z,149.6
2018-07-24T05:40:54.580Z,149.1
2018-07-24T05:41:55.625Z,149.1
2018-07-24T05:42:57.008Z,149.1
2018-07-24T05:43:58.583Z,149.6
2018-07-24T05:45:00.146Z,149.1
2018-07-24T05:46:01.702Z,149.6
2018-07-24T05:47:03.090Z,149.1
2018-07-24T05:48:04.647Z,149.1
2018-07-24T05:49:06.210Z,149.1
2018-07-24T05:50:07.419Z,149.1
2018-07-24T05:51:08.815Z,149.6
2018-07-24T05:52:10.360Z,149.6
2018-07-24T05:53:11.917Z,149.6
2018-07-24T05:54:13.463Z,149.6
2018-07-24T05:55:14.995Z,149.6
2018-07-24T05:56:16.584Z,149.1
2018-07-24T05:57:17.988Z,148.1
2018-07-24T05:58:19.564Z,149.1
2018-07-24T05:59:21.102Z,149.1
2018-07-24T06:00:22.658Z,149.6
2018-07-24T06:01:24.200Z,149.1
2018-07-24T06:02:25.594Z,149.6
2018-07-24T06:03:27.153Z,149.1
2018-07-24T06:04:28.695Z,149.6
2018-07-24T06:05:30.088Z,149.1
2018-07-24T06:06:31.465Z,149.6
2018-07-24T06:07:33.056Z,149.1
2018-07-24T06:08:34.596Z,149.6
2018-07-24T06:09:35.972Z,149.1
2018-07-24T06:10:37.369Z,148.6
2018-07-24T06:11:38.765Z,149.1
2018-07-24T06:12:39.975Z,148.6
2018-07-24T06:13:41.365Z,149.1
2018-07-24T06:14:42.731Z,149.1
2018-07-24T06:15:44.301Z,149.6
2018-07-24T06:16:46.040Z,149.1
2018-07-24T06:17:47.407Z,148.6
2018-07-24T06:18:48.967Z,149.6
2018-07-24T06:19:50.531Z,149.1
2018-07-24T06:20:52.087Z,149.1
2018-07-24T06:21:53.801Z,150
2018-07-24T06:22:55.830Z,149.6
2018-07-24T06:23:57.373Z,149.1
2018-07-24T06:24:58.938Z,149.6
2018-07-24T06:26:00.539Z,149.1
2018-07-24T06:27:02.095Z,149.1
2018-07-24T06:28:03.485Z,149.1
2018-07-24T06:29:04.876Z,149.1
2018-07-24T06:30:06.258Z,149.6
2018-07-24T06:31:07.627Z,149.1
2018-07-24T06:32:09.176Z,149.6
2018-07-24T06:33:10.558Z,149.1
2018-07-24T06:34:12.101Z,148.1
2018-07-24T06:35:13.645Z,147.6
2018-07-24T06:36:15.207Z,148.6
2018-07-24T06:37:16.597Z,149.1
2018-07-24T06:38:17.827Z,149.1
2018-07-24T06:39:19.386Z,148.6
2018-07-24T06:40:20.963Z,149.1
2018-07-24T06:41:22.014Z,149.6
2018-07-24T06:42:23.564Z,149.1
2018-07-24T06:43:25.121Z,149.1
2018-07-24T06:44:26.367Z,149.6
2018-07-24T06:45:28.076Z,149.6
2018-07-24T06:46:29.620Z,149.1
2018-07-24T06:47:30.999Z,148.6
2018-07-24T06:48:32.545Z,149.1
2018-07-24T06:49:34.105Z,149.6
2018-07-24T06:50:35.479Z,148.1
2018-07-24T06:51:37.187Z,149.1
2018-07-24T06:52:39.560Z,149.1
2018-07-24T06:53:40.949Z,149.6
2018-07-24T06:54:42.498Z,149.6
2018-07-24T06:55:43.727Z,149.1
2018-07-24T06:56:45.281Z,149.6
2018-07-24T06:57:46.678Z,149.1
2018-07-24T06:58:48.224Z,149.1
2018-07-24T06:59:49.616Z,149.6
2018-07-24T07:00:51.147Z,149.1
2018-07-24T07:01:52.519Z,148.6
2018-07-24T07:02:54.058Z,149.1
2018-07-24T07:03:55.445Z,149.1
2018-07-24T07:04:57.084Z,149.1
2018-07-24T07:05:58.898Z,149.1
2018-07-24T07:07:00.115Z,149.1
2018-07-24T07:08:01.500Z,148.6
2018-07-24T07:09:02.889Z,149.1
2018-07-24T07:10:04.277Z,149.1
2018-07-24T07:11:05.734Z,149.1
2018-07-24T07:12:07.284Z,149.1
2018-07-24T07:13:08.627Z,149.1
2018-07-24T07:14:10.438Z,149.1
2018-07-24T07:15:11.816Z,149.1
2018-07-24T07:16:13.212Z,149.1
2018-07-24T07:17:15.022Z,149.1
2018-07-24T07:18:15.898Z,149.6
2018-07-24T07:19:17.444Z,149.1
2018-07-24T07:20:18.835Z,149.6
2018-07-24T07:21:20.368Z,149.6
2018-07-24T07:22:21.916Z,149.6
2018-07-24T07:23:23.536Z,149.1
2018-07-24T07:24:25.470Z,149.1
2018-07-24T07:25:27.056Z,149.6
2018-07-24T07:26:28.435Z,149.6
2018-07-24T07:27:29.983Z,149.1
2018-07-24T07:28:31.380Z,149.1
2018-07-24T07:29:32.937Z,149.1
2018-07-24T07:30:34.163Z,149.6
2018-07-24T07:31:35.684Z,149.1
2018-07-24T07:32:37.347Z,149.1
2018-07-24T07:33:39.368Z,149.1
2018-07-24T07:34:40.934Z,148.6
2018-07-24T07:35:42.303Z,148.6
2018-07-24T07:36:43.700Z,149.1
2018-07-24T07:37:44.940Z,149.1
2018-07-24T07:38:46.324Z,148.6
2018-07-24T07:39:47.898Z,148.6
2018-07-24T07:40:49.301Z,149.6
2018-07-24T07:41:50.544Z,149.1
2018-07-24T07:42:51.753Z,149.1
2018-07-24T07:43:53.215Z,149.1
2018-07-24T07:44:54.946Z,149.1
2018-07-24T07:45:56.184Z,149.1
2018-07-24T07:46:57.566Z,148.6
2018-07-24T07:47:59.129Z,149.1
2018-07-24T07:49:00.724Z,149.1
2018-07-24T07:50:01.790Z,149.1
2018-07-24T07:51:03.333Z,148.6
2018-07-24T07:52:04.721Z,148.6
2018-07-24T07:53:06.104Z,149.1
2018-07-24T07:54:07.509Z,149.1
2018-07-24T07:55:08.889Z,149.1
2018-07-24T07:56:10.457Z,149.1
2018-07-24T07:57:11.850Z,148.6
2018-07-24T07:58:13.066Z,148.6
2018-07-24T07:59:14.612Z,148.6
2018-07-24T08:00:15.854Z,149.1
2018-07-24T08:01:17.230Z,148.6
2018-07-24T08:02:18.606Z,149.6
2018-07-24T08:03:20.192Z,149.1
2018-07-24T08:04:21.876Z,149.1
2018-07-24T08:05:23.893Z,148.6
2018-07-24T08:06:25.437Z,148.6
2018-07-24T08:07:26.988Z,149.1
2018-07-24T08:08:28.553Z,149.1
2018-07-24T08:09:29.930Z,149.1
2018-07-24T08:10:31.334Z,148.6
2018-07-24T08:11:32.886Z,148.6
2018-07-24T08:12:34.286Z,149.1
2018-07-24T08:13:35.526Z,149.1
2018-07-24T08:14:37.086Z,149.1
2018-07-24T08:15:38.643Z,148.6
2018-07-24T08:16:40.036Z,148.6
2018-07-24T08:17:41.254Z,148.6
2018-07-24T08:18:42.638Z,148.6
2018-07-24T08:19:44.022Z,148.6
2018-07-24T08:20:45.586Z,149.1
2018-07-24T08:21:46.974Z,149.1
2018-07-24T08:22:48.516Z,148.6
2018-07-24T08:23:49.901Z,149.1
2018-07-24T08:24:51.125Z,148.6
2018-07-24T08:25:52.516Z,148.6
2018-07-24T08:26:54.062Z,149.1
2018-07-24T08:27:55.475Z,148.1
2018-07-24T08:28:57.225Z,148.6
2018-07-24T08:29:58.604Z,148.6
2018-07-24T08:30:59.982Z,148.6
2018-07-24T08:32:01.528Z,149.1
2018-07-24T08:33:02.910Z,149.6
2018-07-24T08:34:04.474Z,148.6
2018-07-24T08:35:05.686Z,147.6
2018-07-24T08:36:06.743Z,150.5
2018-07-24T08:37:08.133Z,151
2018-07-24T08:38:09.521Z,150.5
2018-07-24T08:39:10.912Z,151
2018-07-24T08:40:12.306Z,150.5
2018-07-24T08:41:13.680Z,150.5
2018-07-24T08:42:14.881Z,150.5
2018-07-24T08:43:16.438Z,150
2018-07-24T08:44:17.823Z,151
2018-07-24T08:45:19.371Z,150.5
2018-07-24T08:46:20.796Z,151.5
2018-07-24T08:47:22.348Z,151
2018-07-24T08:48:23.574Z,150.5
2018-07-24T08:49:24.975Z,151
2018-07-24T08:50:26.533Z,150.5
2018-07-24T08:51:28.100Z,150
2018-07-24T08:52:29.750Z,150.5
2018-07-24T08:53:32.802Z,150.5
2018-07-24T08:54:36.569Z,150.5
2018-07-24T08:55:40.518Z,151
2018-07-24T08:56:44.444Z,151
2018-07-24T08:57:46.109Z,150
2018-07-24T08:58:48.072Z,150.5
2018-07-24T08:59:49.626Z,150.5
2018-07-24T09:00:50.837Z,150.5
2018-07-24T09:01:52.435Z,150.5
2018-07-24T09:02:53.843Z,150.5
2018-07-24T09:03:55.427Z,150.5
2018-07-24T09:04:56.821Z,151
2018-07-24T09:05:58.055Z,150.5
2018-07-24T09:06:59.470Z,150.5
2018-07-24T09:08:00.869Z,151
2018-07-24T09:09:02.260Z,150.5
2018-07-24T09:10:03.896Z,150.5
2018-07-24T09:11:05.502Z,151
2018-07-24T09:12:07.052Z,150.5
2018-07-24T09:13:08.432Z,150.5
2018-07-24T09:14:09.995Z,151
2018-07-24T09:15:11.546Z,150
2018-07-24T09:16:13.108Z,151
2018-07-24T09:17:14.487Z,150.5
2018-07-24T09:18:16.035Z,150.5
2018-07-24T09:19:17.090Z,150
2018-07-24T09:20:18.471Z,150.5
2018-07-24T09:21:19.866Z,150.5
2018-07-24T09:22:21.245Z,150
2018-07-24T09:23:22.805Z,151
2018-07-24T09:24:24.374Z,151
2018-07-24T09:25:25.936Z,151
2018-07-24T09:26:27.317Z,150.5
2018-07-24T09:27:28.698Z,150.5
2018-07-24T09:28:30.099Z,151
2018-07-24T09:29:31.638Z,150.5
2018-07-24T09:30:32.932Z,151
2018-07-24T09:31:34.635Z,151
2018-07-24T09:32:36.200Z,151
2018-07-24T09:33:37.582Z,150.5
2018-07-24T09:34:39.144Z,151
2018-07-24T09:35:40.684Z,150.5
2018-07-24T09:36:42.136Z,150.5
2018-07-24T09:37:43.186Z,150
2018-07-24T09:38:44.563Z,151
2018-07-24T09:39:46.107Z,150.5
2018-07-24T09:40:47.492Z,150
2018-07-24T09:41:48.864Z,151
2018-07-24T09:42:50.275Z,150.5
2018-07-24T09:43:51.486Z,150.5
2018-07-24T09:44:52.873Z,151
2018-07-24T09:45:54.420Z,150.5
2018-07-24T09:46:56.401Z,150.5
2018-07-24T09:47:57.783Z,150
2018-07-24T09:48:58.846Z,150.5
2018-07-24T09:50:00.232Z,150.5
2018-07-24T09:51:01.779Z,150.5
2018-07-24T09:52:03.198Z,150.5
2018-07-24T09:53:04.764Z,150.5
2018-07-24T09:54:06.336Z,150.5
2018-07-24T09:55:07.721Z,150
2018-07-24T09:56:09.089Z,150
2018-07-24T09:57:10.648Z,150.5
2018-07-24T09:58:12.193Z,150
2018-07-24T09:59:13.636Z,150.5
2018-07-24T10:00:14.976Z,150.5
2018-07-24T10:01:16.367Z,150
2018-07-24T10:02:17.615Z,150.5
2018-07-24T10:03:19.177Z,150
2018-07-24T10:04:20.408Z,150
2018-07-24T10:05:21.918Z,150.5
2018-07-24T10:06:23.763Z,150.5
2018-07-24T10:07:25.340Z,150.5
2018-07-24T10:08:26.910Z,150.5
2018-07-24T10:09:28.317Z,149.6
2018-07-24T10:10:29.905Z,150.5
2018-07-24T10:11:31.284Z,150.5
2018-07-24T10:12:32.710Z,150.5
2018-07-24T10:13:34.358Z,150.5
2018-07-24T10:14:35.570Z,150.5
2018-07-24T10:15:37.135Z,150.5
2018-07-24T10:16:38.734Z,150.5
2018-07-24T10:17:40.569Z,150.5
2018-07-24T10:18:42.137Z,150.5
2018-07-24T10:19:43.548Z,150.5
2018-07-24T10:20:44.932Z,150
2018-07-24T10:21:46.159Z,150.5
2018-07-24T10:22:47.722Z,150
2018-07-24T10:23:49.296Z,150
2018-07-24T10:24:50.850Z,150.5
2018-07-24T10:25:52.403Z,150.5
2018-07-24T10:26:53.964Z,150.5
2018-07-24T10:27:55.355Z,150.5
2018-07-24T10:28:56.596Z,150.5
2018-07-24T10:29:58.146Z,150.5
2018-07-24T10:30:59.691Z,150.5
2018-07-24T10:32:01.084Z,150.5
2018-07-24T10:33:02.500Z,150
2018-07-24T10:34:04.278Z,150.5
2018-07-24T10:35:05.830Z,150
2018-07-24T10:36:07.205Z,150
2018-07-24T10:37:08.255Z,150.5
2018-07-24T10:38:09.818Z,150.5
2018-07-24T10:39:11.032Z,150
2018-07-24T10:40:12.604Z,150.5
2018-07-24T10:41:13.993Z,150
2018-07-24T10:42:15.399Z,150
2018-07-24T10:43:16.986Z,150
2018-07-24T10:44:18.586Z,150.5
2018-07-24T10:45:20.148Z,150.5
2018-07-24T10:46:21.720Z,150.5
2018-07-24T10:47:23.283Z,150
2018-07-24T10:48:24.688Z,150
2018-07-24T10:49:26.403Z,150.5
2018-07-24T10:50:28.000Z,150.5
2018-07-24T10:51:29.567Z,150
2018-07-24T10:52:30.985Z,150.5
2018-07-24T10:53:32.620Z,150.5
2018-07-24T10:54:34.216Z,150
2018-07-24T10:55:35.825Z,150.5
2018-07-24T10:56:37.408Z,150.5
2018-07-24T10:57:38.978Z,150.5
2018-07-24T10:58:40.403Z,150
2018-07-24T10:59:41.848Z,149.6
2018-07-24T11:00:43.426Z,150
2018-07-24T11:01:45.028Z,150.5
2018-07-24T11:02:46.605Z,150.5
2018-07-24T11:03:48.207Z,150
2018-07-24T11:04:49.630Z,150.5
2018-07-24T11:05:51.195Z,150
2018-07-24T11:06:52.767Z,150.5
2018-07-24T11:07:54.158Z,150
2018-07-24T11:08:55.714Z,150.5
2018-07-24T11:09:57.257Z,150.5
2018-07-24T11:10:58.730Z,150.5
2018-07-24T11:12:00.514Z,150
2018-07-24T11:13:02.098Z,150
2018-07-24T11:14:03.662Z,150
2018-07-24T11:15:05.210Z,150
2018-07-24T11:16:06.603Z,150.5
2018-07-24T11:17:08.168Z,150
2018-07-24T11:18:09.568Z,150.5
2018-07-24T11:19:11.135Z,150
2018-07-24T11:20:12.693Z,150
2018-07-24T11:21:14.092Z,150
2018-07-24T11:22:15.360Z,150
2018-07-24T11:23:17.480Z,150
2018-07-24T11:24:19.913Z,150
2018-07-24T11:25:21.523Z,150
2018-07-24T11:26:23.125Z,150
2018-07-24T11:27:24.572Z,150.5
2018-07-24T11:28:26.615Z,150.5
2018-07-24T11:29:28.653Z,151
2018-07-24T11:30:30.239Z,150
2018-07-24T11:31:31.632Z,150
2018-07-24T11:32:32.895Z,150
2018-07-24T11:33:34.520Z,150
2018-07-24T11:34:36.547Z,150.5
2018-07-24T11:35:38.144Z,150
2018-07-24T11:36:40.415Z,150.5
2018-07-24T11:37:41.832Z,151
2018-07-24T11:38:43.425Z,150.5
2018-07-24T11:39:45.176Z,150.5
2018-07-24T11:40:46.774Z,151
2018-07-24T11:41:48.189Z,150.5
2018-07-24T11:42:49.579Z,150.5
2018-07-24T11:43:51.008Z,150.5
2018-07-24T11:44:52.439Z,150
2018-07-24T11:45:54.002Z,150.5
2018-07-24T11:46:55.582Z,150.5
2018-07-24T11:47:56.986Z,150
2018-07-24T11:48:58.575Z,150.5
2018-07-24T11:50:00.172Z,150
2018-07-24T11:51:01.588Z,150
2018-07-24T11:52:03.201Z,150
2018-07-24T11:53:04.604Z,150
2018-07-24T11:54:06.196Z,150
2018-07-24T11:55:07.765Z,150
2018-07-24T11:56:09.354Z,150
2018-07-24T11:57:11.000Z,150
2018-07-24T11:58:12.585Z,150.5
2018-07-24T11:59:14.174Z,150.5
2018-07-24T12:00:15.763Z,151
2018-07-24T12:01:17.340Z,150
2018-07-24T12:02:18.935Z,149.6
2018-07-24T12:03:20.501Z,150
2018-07-24T12:04:21.769Z,150
2018-07-24T12:05:23.338Z,150
2018-07-24T12:06:24.575Z,150
2018-07-24T12:07:25.968Z,150.5
2018-07-24T12:08:27.520Z,150.5
2018-07-24T12:09:29.072Z,150
2018-07-24T12:10:30.647Z,150.5
2018-07-24T12:11:32.281Z,150.5
2018-07-24T12:12:33.938Z,150.5
2018-07-24T12:13:35.498Z,150.5
2018-07-24T12:14:36.938Z,150
2018-07-24T12:15:38.835Z,150
2018-07-24T12:16:40.420Z,150
2018-07-24T12:17:41.966Z,150
2018-07-24T12:18:43.537Z,150
2018-07-24T12:19:44.920Z,149.6
2018-07-24T12:20:46.330Z,146.1
2018-07-24T12:21:47.727Z,146.1
2018-07-24T12:22:49.134Z,146.1
2018-07-24T12:23:50.514Z,146.1
2018-07-24T12:24:51.895Z,146.6
2018-07-24T12:25:53.309Z,146.1
2018-07-24T12:26:54.929Z,146.1
2018-07-24T12:27:56.322Z,146.1
2018-07-24T12:28:57.723Z,146.1
2018-07-24T12:29:59.138Z,146.6
2018-07-24T12:31:00.703Z,146.1
2018-07-24T12:32:02.105Z,146.6
2018-07-24T12:33:03.341Z,146.1
2018-07-24T12:34:04.733Z,146.1
2018-07-24T12:35:06.308Z,146.1
2018-07-24T12:36:08.099Z,146.6
2018-07-24T12:37:10.074Z,146.1
2018-07-24T12:38:11.673Z,146.6
2018-07-24T12:39:13.254Z,146.6
2018-07-24T12:40:14.857Z,149.6
2018-07-24T12:41:16.076Z,150.5
2018-07-24T12:42:17.656Z,150.5
2018-07-24T12:43:19.238Z,150.5
2018-07-24T12:44:20.622Z,149.6
2018-07-24T12:45:22.046Z,150.5
2018-07-24T12:46:23.638Z,150.5
2018-07-24T12:47:25.057Z,150
2018-07-24T12:48:26.451Z,149.6
2018-07-24T12:49:28.038Z,149.6
2018-07-24T12:50:29.428Z,149.6
2018-07-24T12:51:30.845Z,149.6
2018-07-24T12:52:32.351Z,149.6
2018-07-24T12:53:34.293Z,149.6
2018-07-24T12:54:35.683Z,149.1
2018-07-24T12:55:37.246Z,149.6
2018-07-24T12:56:38.799Z,146.1
2018-07-24T12:57:40.339Z,149.6
2018-07-24T12:58:41.718Z,149.6
2018-07-24T12:59:43.116Z,149.6
2018-07-24T13:00:44.665Z,149.6
2018-07-24T13:01:46.225Z,149.6
2018-07-24T13:02:47.624Z,149.6
2018-07-24T13:03:49.014Z,149.1
2018-07-24T13:04:50.721Z,149.6
2018-07-24T13:05:52.092Z,149.6
2018-07-24T13:06:53.328Z,149.6
2018-07-24T13:07:54.903Z,149.1
2018-07-24T13:08:56.321Z,149.1
2018-07-24T13:09:58.030Z,150
2018-07-24T13:11:00.159Z,149.1
2018-07-24T13:12:01.640Z,149.6
2018-07-24T13:13:03.206Z,149.6
2018-07-24T13:14:04.419Z,149.6
2018-07-24T13:15:05.987Z,150
2018-07-24T13:16:07.546Z,149.6
2018-07-24T13:17:09.106Z,149.6
2018-07-24T13:18:10.529Z,149.6
2018-07-24T13:19:11.753Z,149.6
2018-07-24T13:20:13.147Z,149.6
2018-07-24T13:21:14.528Z,146.6
2018-07-24T13:22:15.915Z,148.1
2018-07-24T13:23:17.308Z,147.6
2018-07-24T13:24:18.709Z,147.1
2018-07-24T13:25:20.095Z,147.6
2018-07-24T13:26:21.478Z,147.6
2018-07-24T13:27:23.019Z,148.1
2018-07-24T13:28:24.414Z,148.1